Time;durP1;ratioP1;P1;durP2;ratioP2;P2;SDS_P1;SDS_P2;PMS_P1;PMS_P2;Temp;Humidity;BMP_temperature;BMP_pressure;BME280_temperature;BME280_humidity;BME280_pressure;Samples;Min_cycle;Max_cycle;Signal;HPM_P1;HPM_P2
2024/01/21 00:00:59;;;;;;;5.57;3.70;;;;;;;-1.77;100.00;99856.06;5081215;27;20074;-76
2024/01/21 00:03:26;;;;;;;4.53;3.47;;;;;;;-1.78;100.00;99870.84;5081038;27;20091;-74
2024/01/21 00:05:51;;;;;;;4.60;3.40;;;;;;;-1.80;100.00;99872.66;5082266;27;20440;-73
2024/01/21 00:08:18;;;;;;;5.20;3.63;;;;;;;-1.84;100.00;99870.28;5060363;28;20048;-71
2024/01/21 00:10:43;;;;;;;5.73;3.90;;;;;;;-1.82;100.00;99876.28;5060192;28;20047;-73
2024/01/21 00:13:09;;;;;;;5.27;3.80;;;;;;;-1.86;100.00;99887.75;5043375;28;20081;-74
2024/01/21 00:15:35;;;;;;;6.93;4.00;;;;;;;-1.89;100.00;99882.69;5077312;28;20035;-75
2024/01/21 00:18:01;;;;;;;6.17;3.80;;;;;;;-1.89;100.00;99885.28;5060788;28;20675;-75
2024/01/21 00:20:30;;;;;;;9.13;4.10;;;;;;;-1.92;100.00;99875.88;5043853;28;20043;-74
2024/01/21 00:22:57;;;;;;;5.63;3.70;;;;;;;-1.92;100.00;99880.22;5061038;28;20511;-74
2024/01/21 00:25:23;;;;;;;9.03;4.90;;;;;;;-1.98;100.00;99889.19;5094229;28;20123;-74
2024/01/21 00:27:48;;;;;;;7.20;4.27;;;;;;;-2.01;100.00;99891.09;5114550;27;20502;-71
2024/01/21 00:30:14;;;;;;;6.03;3.83;;;;;;;-2.05;100.00;99900.81;5097929;27;20046;-73
2024/01/21 00:32:40;;;;;;;4.77;3.80;;;;;;;-2.09;100.00;99898.44;5114861;27;20058;-75
2024/01/21 00:35:07;;;;;;;5.50;3.93;;;;;;;-2.09;100.00;99906.25;5080893;27;20047;-74
2024/01/21 00:37:32;;;;;;;6.40;4.20;;;;;;;-2.16;100.00;99910.88;5064077;27;20078;-75
2024/01/21 00:39:58;;;;;;;5.93;4.27;;;;;;;-2.19;100.00;99911.03;5130799;27;20490;-74
2024/01/21 00:42:24;;;;;;;6.93;3.83;;;;;;;-2.20;100.00;99911.94;5118890;27;20058;-75
2024/01/21 00:44:50;;;;;;;6.33;4.07;;;;;;;-2.25;100.00;99916.53;5151811;27;20045;-70
2024/01/21 00:47:16;;;;;;;7.37;4.73;;;;;;;-2.28;100.00;99927.06;5117917;27;20061;-75
2024/01/21 00:49:43;;;;;;;5.97;3.93;;;;;;;-2.31;100.00;99936.78;5117151;27;20046;-74
2024/01/21 00:52:12;;;;;;;6.33;4.40;;;;;;;-2.35;100.00;99935.19;5100254;27;20196;-74
2024/01/21 00:54:42;;;;;;;6.17;3.97;;;;;;;-2.30;100.00;99935.84;5100161;27;20045;-74
2024/01/21 00:57:10;;;;;;;7.23;4.63;;;;;;;-2.48;100.00;99928.91;5134017;27;20141;-74
2024/01/21 00:59:38;;;;;;;7.50;4.40;;;;;;;-2.53;100.00;99942.09;5075858;28;20437;-75
2024/01/21 01:02:04;;;;;;;6.53;4.70;;;;;;;-2.56;100.00;99938.78;5057615;28;20140;-75
2024/01/21 01:04:30;;;;;;;5.97;4.37;;;;;;;-2.59;100.00;99941.53;5074600;28;20423;-75
2024/01/21 01:06:56;;;;;;;6.57;4.30;;;;;;;-2.66;100.00;99942.72;5057022;28;20056;-74
2024/01/21 01:09:22;;;;;;;6.13;4.33;;;;;;;-2.69;100.00;99942.88;5073070;28;20059;-75
2024/01/21 01:11:48;;;;;;;6.13;4.37;;;;;;;-2.74;100.00;99957.81;5073459;28;20423;-74
2024/01/21 01:14:14;;;;;;;6.57;4.40;;;;;;;-2.79;100.00;99955.41;5072995;28;20119;-74
2024/01/21 01:16:40;;;;;;;5.67;4.13;;;;;;;-2.81;100.00;99958.97;5039645;28;20397;-73
2024/01/21 01:19:07;;;;;;;7.50;4.83;;;;;;;-2.84;100.00;99957.38;5039689;28;20438;-73
2024/01/21 01:21:33;;;;;;;7.43;4.80;;;;;;;-2.97;100.00;99965.78;5072965;28;20071;-74
2024/01/21 01:23:59;;;;;;;6.27;4.23;;;;;;;-2.96;100.00;99976.09;5039749;28;20071;-74
2024/01/21 01:26:25;;;;;;;6.17;4.10;;;;;;;-3.00;100.00;99976.28;5039728;28;20051;-74
2024/01/21 01:28:51;;;;;;;7.50;4.53;;;;;;;-3.02;100.00;99980.69;5056890;28;20040;-76
2024/01/21 01:31:18;;;;;;;5.77;4.13;;;;;;;-2.98;100.00;99985.69;5023396;28;20056;-74
2024/01/21 01:33:44;;;;;;;8.17;4.43;;;;;;;-3.10;100.00;99982.78;5072681;28;20044;-74
2024/01/21 01:36:10;;;;;;;6.10;4.07;;;;;;;-3.12;100.00;99992.41;5081350;27;20065;-73
2024/01/21 01:38:36;;;;;;;7.83;4.80;;;;;;;-3.16;100.00;99989.09;5135184;27;20047;-74
2024/01/21 01:41:03;;;;;;;7.83;4.30;;;;;;;-3.18;100.00;99990.06;5101484;27;20038;-75
2024/01/21 01:43:29;;;;;;;8.93;4.40;;;;;;;-3.22;100.00;99988.50;5118263;27;20167;-74
2024/01/21 01:45:55;;;;;;;7.10;4.70;;;;;;;-3.26;100.00;99994.72;5101606;27;20545;-73
2024/01/21 01:48:22;;;;;;;7.90;4.53;;;;;;;-3.22;100.00;99981.56;5118988;27;20051;-75
2024/01/21 01:50:49;;;;;;;8.57;4.70;;;;;;;-3.27;100.00;99995.63;5085016;27;20050;-76
2024/01/21 01:53:16;;;;;;;7.03;4.17;;;;;;;-3.37;100.00;99984.78;5118127;27;20115;-75
2024/01/21 01:55:43;;;;;;;6.40;4.30;;;;;;;-3.32;100.00;100008.78;5085129;27;20047;-75
2024/01/21 01:58:11;;;;;;;7.23;4.53;;;;;;;-3.40;100.00;100007.44;5117881;27;20139;-76
2024/01/21 02:00:37;;;;;;;7.23;4.53;;;;;;;-3.49;100.00;100009.50;5101015;27;20394;-74
2024/01/21 02:03:04;;;;;;;8.23;5.00;;;;;;;-3.51;100.00;100013.06;5136004;27;20061;-73
2024/01/21 02:05:30;;;;;;;6.43;4.20;;;;;;;-3.57;100.00;100016.72;5136073;27;20039;-74
2024/01/21 02:07:55;;;;;;;7.57;4.53;;;;;;;-3.61;100.00;100016.91;5101996;27;20047;-73
2024/01/21 02:10:24;;;;;;;7.10;4.70;;;;;;;-3.58;100.00;100017.66;5118864;27;20042;-74
2024/01/21 02:12:53;;;;;;;8.53;4.93;;;;;;;-3.65;100.00;100029.19;5136699;27;20042;-78
2024/01/21 02:15:20;;;;;;;7.80;4.90;;;;;;;-3.73;100.00;100026.06;5121150;27;20039;-74
2024/01/21 02:17:45;;;;;;;8.57;5.50;;;;;;;-3.77;100.00;100029.66;5118376;27;20046;-77
2024/01/21 02:20:11;;;;;;;7.10;4.90;;;;;;;-3.79;100.00;100030.63;5063551;28;20062;-78
2024/01/21 02:22:40;;;;;;;6.67;4.77;;;;;;;-3.75;100.00;100040.81;5079669;28;20043;-77
2024/01/21 02:25:06;;;;;;;8.23;5.17;;;;;;;-3.80;100.00;100039.31;5079287;28;20043;-75
2024/01/21 02:27:33;;;;;;;8.57;5.20;;;;;;;-3.84;100.00;100042.91;5062290;28;20047;-76
2024/01/21 02:29:59;;;;;;;7.87;4.70;;;;;;;-4.02;100.00;100038.44;5079239;28;20446;-75
2024/01/21 02:32:26;;;;;;;8.50;5.10;;;;;;;-3.99;100.00;100048.69;5079398;28;20069;-75
2024/01/21 02:34:53;;;;;;;7.80;4.97;;;;;;;-3.98;100.00;100060.75;5079567;28;20105;-75
2024/01/21 02:37:19;;;;;;;8.77;5.27;;;;;;;-4.10;100.00;100051.69;5080802;28;20051;-76
2024/01/21 02:39:44;;;;;;;10.60;5.20;;;;;;;-4.14;100.00;100062.25;5116109;28;20054;-74
2024/01/21 02:42:10;;;;;;;12.70;5.77;;;;;;;-4.15;100.00;100065.75;5078904;28;20459;-75
2024/01/21 02:44:37;;;;;;;8.23;5.00;;;;;;;-4.21;100.00;100077.19;5061908;28;20035;-75
2024/01/21 02:47:03;;;;;;;9.33;5.83;;;;;;;-4.23;100.00;100076.38;5062105;28;20036;-75
2024/01/21 02:49:29;;;;;;;9.60;5.80;;;;;;;-4.34;100.00;100068.16;5078429;28;20043;-74
2024/01/21 02:51:56;;;;;;;9.93;6.00;;;;;;;-4.31;100.00;100091.38;5093160;27;20579;-74
2024/01/21 02:54:22;;;;;;;6.90;4.50;;;;;;;-4.34;100.00;100093.22;5101339;27;20539;-76
2024/01/21 02:56:49;;;;;;;7.73;4.73;;;;;;;-4.40;100.00;100093.44;5113177;27;20039;-76
2024/01/21 02:59:15;;;;;;;7.43;4.70;;;;;;;-4.44;100.00;100095.31;5134376;27;20050;-76
2024/01/21 03:01:41;;;;;;;9.60;4.90;;;;;;;-4.48;100.00;100101.50;5099831;27;20509;-76
2024/01/21 03:04:11;;;;;;;8.00;4.63;;;;;;;-4.37;100.00;100098.53;5082545;27;20047;-76
2024/01/21 03:06:38;;;;;;;;;;;;;;;-4.26;100.00;100117.16;5058460;28;20051;-75
2024/01/21 03:09:05;;;;;;;7.83;5.20;;;;;;;-4.41;100.00;100123.69;5001610;28;19935;-77
2024/01/21 03:11:33;;;;;;;7.67;5.17;;;;;;;-4.48;100.00;100111.00;5018345;28;20080;-75
2024/01/21 03:13:59;;;;;;;9.50;5.40;;;;;;;-4.59;100.00;100110.53;5002272;28;20577;-75
2024/01/21 03:16:25;;;;;;;8.17;4.77;;;;;;;-4.63;100.00;100112.41;5018922;28;20240;-76
2024/01/21 03:18:51;;;;;;;7.70;5.00;;;;;;;-4.65;100.00;100118.53;5018488;28;20053;-76
2024/01/21 03:21:19;;;;;;;11.03;5.60;;;;;;;-4.70;100.00;100118.69;5035069;28;20155;-75
2024/01/21 03:23:48;;;;;;;7.85;4.82;;;;;;;-4.73;100.00;100129.16;5034726;28;20582;-74
2024/01/21 03:26:17;;;;;;;9.27;5.10;;;;;;;-4.77;100.00;100127.56;5019028;28;20060;-76
2024/01/21 03:28:42;;;;;;;7.33;4.43;;;;;;;-4.82;100.00;100137.22;5019811;28;20459;-77
2024/01/21 03:31:08;;;;;;;7.93;4.93;;;;;;;-4.84;100.00;100144.19;5019003;28;20041;-77
2024/01/21 03:33:34;;;;;;;7.07;4.60;;;;;;;-4.85;100.00;100157.19;5034576;28;20044;-74
2024/01/21 03:36:01;;;;;;;8.13;4.80;;;;;;;-4.87;100.00;100157.25;5010918;28;20045;-73
2024/01/21 03:38:27;;;;;;;7.40;5.03;;;;;;;-4.93;100.00;100165.22;5045587;28;20049;-76
2024/01/21 03:40:53;;;;;;;7.40;4.37;;;;;;;-4.96;100.00;100164.47;5001234;28;20118;-75
2024/01/21 03:43:19;;;;;;;7.17;4.67;;;;;;;-5.02;100.00;100164.66;5001485;28;20555;-77
2024/01/21 03:45:44;;;;;;;6.30;4.17;;;;;;;-5.07;100.00;100163.97;5019474;28;20517;-74
2024/01/21 03:48:11;;;;;;;7.50;4.50;;;;;;;-5.08;100.00;100168.31;5017251;28;20055;-75
2024/01/21 03:50:37;;;;;;;6.90;4.60;;;;;;;-5.07;100.00;100172.56;5001491;28;20044;-74
2024/01/21 03:53:04;;;;;;;7.07;4.40;;;;;;;-5.09;100.00;100178.72;5002572;28;20056;-74
2024/01/21 03:55:31;;;;;;;8.43;4.17;;;;;;;-5.13;100.00;100180.53;4994124;28;20159;-72
2024/01/21 03:57:57;;;;;;;6.97;4.20;;;;;;;-5.17;100.00;100189.31;4962268;28;20050;-73
2024/01/21 04:00:23;;;;;;;8.30;4.70;;;;;;;-5.18;100.00;100188.44;5010301;28;20537;-73
2024/01/21 04:02:49;;;;;;;5.93;4.17;;;;;;;-5.25;100.00;100186.09;5010744;28;20482;-74
2024/01/21 04:05:15;;;;;;;7.03;4.40;;;;;;;-5.23;100.00;100198.09;4971355;28;20050;-74
2024/01/21 04:07:41;;;;;;;4.97;3.77;;;;;;;-5.26;100.00;100208.53;4972026;28;20054;-73
2024/01/21 04:10:07;;;;;;;6.33;4.07;;;;;;;-5.26;100.00;100202.53;4987726;28;20101;-74
2024/01/21 04:12:33;;;;;;;5.33;3.57;;;;;;;-5.27;100.00;100206.84;4964026;28;20061;-73
2024/01/21 04:15:00;;;;;;;7.43;3.90;;;;;;;-5.31;100.00;100214.75;5030615;28;20060;-72
2024/01/21 04:17:27;;;;;;;5.77;3.87;;;;;;;-5.33;100.00;100213.94;5014201;28;20143;-73
2024/01/21 04:19:53;;;;;;;6.50;3.80;;;;;;;-5.38;100.00;100223.59;5030381;28;20049;-74
2024/01/21 04:22:21;;;;;;;5.23;3.80;;;;;;;-5.41;100.00;100221.94;5013979;28;20128;-74
2024/01/21 04:24:48;;;;;;;5.73;3.60;;;;;;;-5.40;100.00;100235.75;4958287;28;20054;-74
2024/01/21 04:27:17;;;;;;;6.47;4.20;;;;;;;-5.42;100.00;100242.69;4958379;28;20535;-77
2024/01/21 04:29:43;;;;;;;6.73;4.60;;;;;;;-5.35;100.00;100236.47;4974550;28;20086;-77
2024/01/21 04:32:09;;;;;;;6.03;3.67;;;;;;;-5.42;100.00;100247.88;4985492;28;20049;-69
2024/01/21 04:34:35;;;;;;;5.77;4.03;;;;;;;-5.45;100.00;100260.91;5016997;28;20393;-70
2024/01/21 04:37:01;;;;;;;6.60;3.97;;;;;;;-5.52;100.00;100239.50;5050519;28;20053;-71
2024/01/21 04:39:29;;;;;;;4.93;3.43;;;;;;;-5.41;100.00;100259.91;5018119;28;20441;-71
2024/01/21 04:41:55;;;;;;;5.50;3.70;;;;;;;-5.53;100.00;100263.72;5025495;28;20127;-71
2024/01/21 04:44:20;;;;;;;5.87;3.80;;;;;;;-5.55;100.00;100269.81;5056649;28;20546;-71
2024/01/21 04:46:46;;;;;;;4.70;3.37;;;;;;;-5.58;100.00;100267.31;5040018;28;20036;-72
2024/01/21 04:49:12;;;;;;;8.87;3.90;;;;;;;-5.66;100.00;100274.44;5073287;28;20052;-72
2024/01/21 04:51:38;;;;;;;5.63;3.67;;;;;;;-5.69;100.00;100290.06;5056595;28;20044;-71
2024/01/21 04:54:04;;;;;;;5.80;3.50;;;;;;;-5.71;100.00;100286.66;5056513;28;20044;-70
2024/01/21 04:56:30;;;;;;;6.37;4.00;;;;;;;-5.75;100.00;100291.03;5040228;28;20405;-71
2024/01/21 04:58:56;;;;;;;7.07;3.70;;;;;;;-5.79;100.00;100297.19;5073772;28;20043;-72
2024/01/21 05:01:23;;;;;;;5.73;3.80;;;;;;;-5.80;100.00;100312.75;5098774;28;20059;-71
2024/01/21 05:03:50;;;;;;;5.80;3.70;;;;;;;-5.84;100.00;100306.00;5097626;28;20039;-70
2024/01/21 05:06:16;;;;;;;7.07;4.03;;;;;;;-5.88;100.00;100297.47;5097976;28;20071;-70
2024/01/21 05:08:43;;;;;;;6.33;4.17;;;;;;;-5.91;100.00;100309.63;5097790;28;20042;-70
2024/01/21 05:11:13;;;;;;;5.20;3.80;;;;;;;-5.86;100.00;100315.53;5115636;27;20035;-71
2024/01/21 05:13:42;;;;;;;5.43;3.83;;;;;;;-5.96;100.00;100330.44;5097156;28;20542;-70
2024/01/21 05:16:09;;;;;;;6.30;3.97;;;;;;;-6.03;100.00;100318.56;5063842;28;20047;-70
2024/01/21 05:18:38;;;;;;;6.43;3.73;;;;;;;-6.01;100.00;100309.03;5063276;28;20052;-70
2024/01/21 05:21:14;;;;;;;5.57;3.63;;;;;;;-5.94;100.00;100323.50;5047160;28;20069;-70
2024/01/21 05:23:43;;;;;;;5.73;3.60;;;;;;;-6.12;100.00;100333.47;5033167;28;20049;-73
2024/01/21 05:26:12;;;;;;;6.07;3.50;;;;;;;-6.12;100.00;100331.69;4984389;28;20563;-74
2024/01/21 05:28:41;;;;;;;7.07;3.97;;;;;;;-6.07;100.00;100336.75;5000417;28;20050;-74
2024/01/21 05:31:07;;;;;;;6.07;4.00;;;;;;;-6.18;100.00;100351.72;4982234;28;20056;-73
2024/01/21 05:33:34;;;;;;;7.60;3.90;;;;;;;-6.16;100.00;100347.34;5016857;28;20053;-74
2024/01/21 05:36:00;;;;;;;7.10;4.23;;;;;;;-6.25;100.00;100353.59;4983844;28;20056;-71
2024/01/21 05:38:26;;;;;;;6.57;4.30;;;;;;;-6.28;100.00;100345.03;4983327;28;20164;-71
2024/01/21 05:40:52;;;;;;;7.37;4.53;;;;;;;-6.30;100.00;100354.56;4983949;28;20083;-70
2024/01/21 05:43:17;;;;;;;7.87;4.30;;;;;;;-6.32;100.00;100353.78;5032236;28;20088;-72
2024/01/21 05:45:44;;;;;;;6.67;4.30;;;;;;;-6.28;100.00;100371.75;5020820;28;20048;-69
2024/01/21 05:48:11;;;;;;;8.30;4.27;;;;;;;-6.37;100.00;100368.53;5055907;28;20128;-69
2024/01/21 05:50:38;;;;;;;7.77;4.03;;;;;;;-6.39;100.00;100384.06;5052034;28;20153;-71
2024/01/21 05:53:06;;;;;;;8.27;4.17;;;;;;;-6.42;100.00;100378.09;5056199;28;20629;-70
2024/01/21 05:55:33;;;;;;;8.37;4.60;;;;;;;-6.38;100.00;100405.59;5124096;27;20111;-70
2024/01/21 05:57:59;;;;;;;7.13;3.97;;;;;;;-6.45;100.00;100396.28;5079035;28;20507;-71
2024/01/21 06:00:25;;;;;;;8.57;4.20;;;;;;;-6.46;100.00;100403.19;5079181;28;20376;-72
2024/01/21 06:02:51;;;;;;;7.00;4.20;;;;;;;-6.44;100.00;100411.72;5078573;28;20058;-66
2024/01/21 06:05:17;;;;;;;9.77;4.50;;;;;;;-6.47;100.00;100413.56;5062310;28;20051;-75
2024/01/21 06:07:47;;;;;;;8.63;4.67;;;;;;;-6.38;100.00;100413.34;5079268;28;20044;-77
2024/01/21 06:10:17;;;;;;;7.83;4.23;;;;;;;-6.36;100.00;100419.31;5113253;28;20105;-80
2024/01/21 06:12:44;;;;;;;9.07;4.87;;;;;;;-6.45;100.00;100438.47;5046604;28;20100;-72
2024/01/21 06:15:12;;;;;;;7.53;4.60;;;;;;;-6.34;100.00;100430.47;5038782;28;20155;-69
2024/01/21 06:17:39;;;;;;;8.83;4.87;;;;;;;-6.44;100.00;100429.00;5006252;28;20053;-71
2024/01/21 06:20:08;;;;;;;7.67;4.87;;;;;;;-6.39;100.00;100428.00;5057177;28;20056;-72
2024/01/21 06:22:42;;;;;;;8.00;4.90;;;;;;;-6.43;100.00;100428.97;5012269;28;20102;-73
2024/01/21 06:25:09;;;;;;;10.52;5.75;;;;;;;-6.44;100.00;100429.00;4963941;28;20481;-73
2024/01/21 06:27:34;;;;;;;8.97;5.13;;;;;;;-6.42;100.00;100425.47;4963548;28;20050;-71
2024/01/21 06:30:13;;;;;;;12.53;5.80;;;;;;;-6.22;100.00;100440.53;4963406;28;20049;-73
2024/01/21 06:32:39;;;;;;;8.27;4.93;;;;;;;-6.39;100.00;100446.09;4979406;28;20454;-73
2024/01/21 06:35:06;;;;;;;8.50;5.23;;;;;;;-6.34;100.00;100454.59;4970933;28;20049;-76
2024/01/21 06:37:34;;;;;;;9.47;5.40;;;;;;;-6.27;100.00;100460.47;4998659;28;20434;-76
2024/01/21 06:40:01;;;;;;;11.53;5.60;;;;;;;-6.33;100.00;100474.38;5015140;28;20174;-73
2024/01/21 06:42:33;;;;;;;12.50;6.17;;;;;;;-6.32;100.00;100473.47;4998925;28;20049;-72
2024/01/21 06:44:59;;;;;;;12.23;5.90;;;;;;;-6.29;100.00;100477.75;4982950;28;20049;-73
2024/01/21 06:47:25;;;;;;;10.80;6.00;;;;;;;-6.28;100.00;100476.84;5009969;28;20472;-72
2024/01/21 06:49:52;;;;;;;12.33;5.70;;;;;;;-6.25;100.00;100487.13;5012593;28;20040;-69
2024/01/21 06:52:19;;;;;;;12.10;5.70;;;;;;;-6.25;100.00;100489.72;5043094;28;20121;-74
2024/01/21 06:54:44;;;;;;;8.50;5.03;;;;;;;-6.21;100.00;100494.78;5024987;28;20048;-75
2024/01/21 06:57:11;;;;;;;11.17;5.80;;;;;;;-6.17;100.00;100509.34;5041689;28;20063;-72
2024/01/21 06:59:38;;;;;;;11.33;5.83;;;;;;;-6.05;100.00;100500.47;5060578;27;20440;-72
2024/01/21 07:02:04;;;;;;;14.27;6.37;;;;;;;-6.03;100.00;100496.13;5056998;28;20603;-70
2024/01/21 07:04:32;;;;;;;8.63;5.47;;;;;;;-5.82;100.00;100500.78;5021983;28;20060;-71
2024/01/21 07:06:57;;;;;;;8.37;5.10;;;;;;;-5.45;100.00;100492.09;5036901;28;20079;-69
2024/01/21 07:09:24;;;;;;;11.23;6.27;;;;;;;-4.92;100.00;100500.19;5037844;28;20060;-71
2024/01/21 07:11:51;;;;;;;11.53;7.17;;;;;;;-4.36;100.00;100500.31;5034805;28;20162;-67
2024/01/21 07:14:19;;;;;;;12.70;7.03;;;;;;;-3.61;100.00;100510.09;5005380;28;20498;-68
2024/01/21 07:16:45;;;;;;;16.33;8.50;;;;;;;-3.11;100.00;100516.22;5003794;28;20393;-68
2024/01/21 07:19:10;;;;;;;11.53;7.13;;;;;;;-2.47;100.00;100513.94;5037700;28;20070;-69
2024/01/21 07:21:38;;;;;;;14.00;7.80;;;;;;;-1.85;100.00;100506.38;5012922;28;20484;-68
2024/01/21 07:24:04;;;;;;;11.40;7.33;;;;;;;-1.25;100.00;100516.94;5017739;28;20045;-72
2024/01/21 07:26:52;;;;;;;9.27;6.30;;;;;;;-0.58;100.00;100513.16;5014486;28;20049;-72
2024/01/21 07:29:17;;;;;;;7.30;5.47;;;;;;;-0.10;100.00;100518.81;4935484;29;20114;-70
2024/01/21 07:31:47;;;;;;;8.63;5.47;;;;;;;0.38;100.00;100520.03;4920561;29;20047;-69
2024/01/21 07:34:13;;;;;;;6.63;4.73;;;;;;;0.82;100.00;100531.78;4945339;28;20062;-69
2024/01/21 07:36:45;;;;;;;5.97;4.10;;;;;;;1.23;100.00;100534.03;4970595;28;21469;-71
2024/01/21 07:39:14;;;;;;;6.10;4.13;;;;;;;1.62;100.00;100536.38;4990692;28;20549;-68
2024/01/21 07:41:41;;;;;;;5.75;4.22;;;;;;;1.96;100.00;100525.81;4977380;28;20176;-68
2024/01/21 07:44:08;;;;;;;6.25;3.88;;;;;;;2.26;100.00;100529.38;4961451;28;20404;-70
2024/01/21 07:46:35;;;;;;;6.40;4.15;;;;;;;2.61;100.00;100530.91;4977273;28;20037;-74
2024/01/21 07:49:01;;;;;;;5.72;3.67;;;;;;;2.89;100.00;100533.63;4977645;28;20433;-69
2024/01/21 07:51:28;;;;;;;4.53;3.63;;;;;;;3.22;100.00;100536.94;4993756;28;20058;-69
2024/01/21 07:53:56;;;;;;;5.60;3.95;;;;;;;3.59;100.00;100543.47;4928228;28;20050;-66
2024/01/21 07:56:23;;;;;;;8.23;4.22;;;;;;;3.77;100.00;100550.22;4945373;28;20195;-74
2024/01/21 07:58:51;;;;;;;6.53;4.07;;;;;;;4.00;100.00;100551.47;4963498;28;20072;-70
2024/01/21 08:01:20;;;;;;;5.85;4.22;;;;;;;4.24;100.00;100560.44;5068417;28;20480;-70
2024/01/21 08:03:46;;;;;;;6.10;4.38;;;;;;;4.47;100.00;100559.84;5031992;28;20104;-70
2024/01/21 08:06:12;;;;;;;5.97;4.03;;;;;;;4.72;100.00;100562.63;5069144;28;20171;-67
2024/01/21 08:08:38;;;;;;;7.20;3.90;;;;;;;4.93;100.00;100569.97;5069005;28;20048;-68
2024/01/21 08:11:04;;;;;;;5.85;4.00;;;;;;;5.12;100.00;100572.22;4979017;28;20577;-72
2024/01/21 08:13:30;;;;;;;6.18;3.88;;;;;;;5.36;100.00;100572.38;5014858;28;20049;-69
2024/01/21 08:15:56;;;;;;;6.20;4.07;;;;;;;5.48;100.00;100579.47;5032499;28;20064;-70
2024/01/21 08:18:21;;;;;;;5.53;4.20;;;;;;;5.65;100.00;100587.06;5032152;28;20555;-68
2024/01/21 08:20:47;;;;;;;5.55;3.92;;;;;;;5.72;100.00;100581.28;5014783;28;20044;-71
2024/01/21 08:23:14;;;;;;;5.47;4.10;;;;;;;5.94;100.00;100596.50;5049276;28;20135;-70
2024/01/21 08:25:40;;;;;;;4.90;3.85;;;;;;;6.05;100.00;100593.97;5048490;28;20056;-71
2024/01/21 08:28:07;;;;;;;7.50;4.40;;;;;;;6.23;100.00;100598.81;5013344;28;20057;-70
2024/01/21 08:30:32;;;;;;;7.03;4.45;;;;;;;6.40;100.00;100603.75;5031666;28;20664;-70
2024/01/21 08:32:58;;;;;;;6.70;4.78;;;;;;;6.55;100.00;100591.28;5029393;28;20041;-73
2024/01/21 08:35:24;;;;;;;7.03;4.45;;;;;;;6.72;100.00;100602.28;5015108;28;20512;-72
2024/01/21 08:37:52;;;;;;;7.00;4.80;;;;;;;6.93;100.00;100600.72;5031813;28;20124;-76
2024/01/21 08:40:20;;;;;;;7.45;5.15;;;;;;;7.06;100.00;100603.31;5006099;28;20070;-78
2024/01/21 08:42:48;;;;;;;7.80;5.68;;;;;;;7.25;100.00;100618.66;5028121;28;20044;-76
2024/01/21 08:45:15;;;;;;;8.27;5.63;;;;;;;7.41;100.00;100614.78;4993474;28;20053;-77
2024/01/21 08:47:43;;;;;;;7.60;5.40;;;;;;;7.59;100.00;100612.56;5017313;28;20162;-78
2024/01/21 08:50:09;;;;;;;9.40;5.70;;;;;;;7.74;100.00;100611.41;5070969;28;20064;-76
2024/01/21 08:52:36;;;;;;;9.95;5.47;;;;;;;7.84;100.00;100580.66;5052428;28;20513;-77
2024/01/21 08:55:04;;;;;;;7.57;5.25;;;;;;;8.01;100.00;100566.97;5055640;28;20063;-77
2024/01/21 08:57:30;;;;;;;9.13;5.78;;;;;;;8.23;100.00;100564.34;5073429;28;20047;-76
2024/01/21 08:59:56;;;;;;;8.60;6.28;;;;;;;8.47;100.00;100565.91;5042851;28;20055;-75
2024/01/21 09:02:23;;;;;;;9.85;6.35;;;;;;;8.76;100.00;100568.03;5092210;28;20048;-75
2024/01/21 09:04:49;;;;;;;9.88;6.95;;;;;;;8.99;100.00;100562.56;5035172;28;20083;-74
2024/01/21 09:07:17;;;;;;;12.77;7.90;;;;;;;9.31;100.00;100558.09;5051363;28;20140;-73
2024/01/21 09:09:45;;;;;;;10.15;6.72;;;;;;;9.62;100.00;100557.19;5052424;28;20064;-76
2024/01/21 09:12:14;;;;;;;10.52;6.78;;;;;;;9.93;100.00;100555.44;5018648;28;20473;-78
2024/01/21 09:14:44;;;;;;;12.57;7.80;;;;;;;10.16;100.00;100544.50;5016178;28;20485;-80
2024/01/21 09:17:13;;;;;;;;;;;;;;;10.61;100.00;100552.09;5034198;28;20041;-81
2024/01/21 09:19:41;;;;;;;9.82;6.55;;;;;;;10.65;100.00;100543.72;5035051;28;19920;-81
2024/01/21 09:22:07;;;;;;;9.77;6.97;;;;;;;10.90;100.00;100550.34;5037242;28;20400;-83
2024/01/21 09:24:33;;;;;;;9.75;6.78;;;;;;;11.15;100.00;100541.81;5022355;28;20052;-86
2024/01/21 09:26:59;;;;;;;11.57;7.40;;;;;;;11.49;100.00;100543.06;4882410;28;5522521;-84
2024/01/21 09:29:28;;;;;;;10.07;7.07;;;;;;;11.86;100.00;100542.19;5076455;28;20475;-84
2024/01/21 09:32:01;;;;;;;11.02;7.22;;;;;;;12.15;100.00;100547.41;5002498;28;20053;-84
2024/01/21 09:34:29;;;;;;;10.63;6.78;;;;;;;12.31;100.00;100558.28;5017016;28;20046;-83
2024/01/21 09:36:55;;;;;;;14.45;7.85;;;;;;;12.41;100.00;100563.56;5018338;28;20053;-80
2024/01/21 09:39:21;;;;;;;11.60;7.55;;;;;;;12.37;100.00;100572.84;5000243;28;20115;-77
2024/01/21 09:41:51;;;;;;;12.57;7.68;;;;;;;12.42;100.00;100584.75;5016798;28;20176;-78
2024/01/21 09:44:26;;;;;;;11.00;7.97;;;;;;;12.26;100.00;100591.66;4989676;28;20054;-73
2024/01/21 09:46:58;;;;;;;11.38;7.75;;;;;;;12.55;100.00;100587.03;4957864;28;20054;-79
2024/01/21 09:49:27;;;;;;;11.52;7.60;;;;;;;12.60;100.00;100585.63;4974179;28;20127;-77
2024/01/21 09:51:54;;;;;;;11.18;7.93;;;;;;;12.64;100.00;100587.00;4958292;28;20050;-78
2024/01/21 09:54:22;;;;;;;13.00;8.13;;;;;;;12.65;98.32;100593.19;4957995;28;20502;-78
2024/01/21 09:56:49;;;;;;;11.55;7.97;;;;;;;12.84;80.00;100593.91;4990638;28;20053;-77
2024/01/21 09:59:18;;;;;;;11.85;7.82;;;;;;;13.04;83.40;100590.16;4997078;28;20096;-77
2024/01/21 10:01:46;;;;;;;12.40;8.20;;;;;;;13.18;76.48;100603.00;4998672;28;20077;-80
2024/01/21 10:04:16;;;;;;;15.85;8.30;;;;;;;13.44;69.47;100603.91;5014379;28;20069;-80
2024/01/21 10:06:43;;;;;;;11.10;8.13;;;;;;;13.92;65.47;100606.16;4981761;28;20148;-79
2024/01/21 10:09:16;;;;;;;13.10;8.23;;;;;;;14.43;57.91;100610.69;4996651;28;20497;-74
2024/01/21 10:11:48;;;;;;;13.07;7.90;;;;;;;14.80;49.93;100598.66;4980894;28;20133;-75
2024/01/21 10:14:17;;;;;;;12.23;8.50;;;;;;;14.85;46.76;100604.34;4997215;28;20143;-76
2024/01/21 10:16:43;;;;;;;12.13;7.97;;;;;;;15.21;46.89;100607.63;4997285;28;20060;-74
2024/01/21 10:19:16;;;;;;;14.48;8.95;;;;;;;15.47;45.03;100599.53;4997917;28;20065;-75
2024/01/21 10:21:42;;;;;;;15.25;8.18;;;;;;;15.45;41.35;100594.34;5020611;28;20059;-75
2024/01/21 10:24:09;;;;;;;13.80;9.02;;;;;;;15.63;40.99;100592.34;5019319;28;20053;-74
2024/01/21 10:26:37;;;;;;;16.38;8.35;;;;;;;15.94;40.70;100597.84;5036036;28;20068;-75
2024/01/21 10:29:03;;;;;;;12.95;8.38;;;;;;;16.23;38.66;100604.34;5019620;28;20049;-75
2024/01/21 10:31:32;;;;;;;10.35;7.22;;;;;;;16.53;36.18;100603.59;4981605;28;20076;-74
2024/01/21 10:34:00;;;;;;;9.35;7.00;;;;;;;16.90;34.23;100602.94;4997940;28;20269;-75
2024/01/21 10:36:32;;;;;;;10.55;7.75;;;;;;;17.48;33.37;100602.47;5019002;28;20045;-74
2024/01/21 10:39:03;;;;;;;15.27;9.27;;;;;;;17.64;29.96;100602.34;5041005;28;20045;-75
2024/01/21 10:41:42;;;;;;;12.15;8.07;;;;;;;17.78;28.41;100607.78;5029030;28;20202;-71
2024/01/21 10:44:09;;;;;;;12.32;7.47;;;;;;;17.73;27.96;100618.22;4967268;28;20114;-71
2024/01/21 10:46:37;;;;;;;15.98;8.00;;;;;;;17.79;27.37;100622.06;4984388;28;20103;-70
2024/01/21 10:49:03;;;;;;;11.75;7.53;;;;;;;17.86;26.42;100618.47;5048548;28;20059;-71
2024/01/21 10:51:29;;;;;;;9.75;7.05;;;;;;;17.79;25.39;100625.56;5033541;28;20429;-71
2024/01/21 10:54:02;;;;;;;15.73;8.20;;;;;;;17.74;25.15;100629.81;5033535;28;20065;-71
2024/01/21 10:56:28;;;;;;;10.60;6.80;;;;;;;17.93;24.39;100634.69;5025591;28;20057;-71
2024/01/21 10:58:56;;;;;;;12.98;6.78;;;;;;;17.97;23.71;100622.56;5033218;28;20059;-70
2024/01/21 11:01:24;;;;;;;14.50;6.97;;;;;;;17.85;22.82;100627.53;4984217;28;20119;-70
2024/01/21 11:03:52;;;;;;;8.50;5.88;;;;;;;17.51;22.23;100623.59;5053812;28;20080;-71
2024/01/21 11:06:18;;;;;;;10.82;5.80;;;;;;;17.31;22.09;100625.06;5037127;28;20036;-71
2024/01/21 11:16:06;;;;;;;10.25;6.35;;;;;;;15.54;21.03;100628.16;5069547;28;20201;-73
2024/01/21 11:18:31;;;;;;;9.05;5.50;;;;;;;15.37;21.60;100629.09;5069564;28;20044;-71
2024/01/21 11:20:59;;;;;;;7.47;4.85;;;;;;;15.17;21.76;100631.22;5001991;28;20048;-72
2024/01/21 11:23:26;;;;;;;8.18;5.30;;;;;;;15.09;21.76;100633.88;5004006;28;20064;-69
2024/01/21 11:25:54;;;;;;;10.82;6.13;;;;;;;14.73;21.28;100639.59;5004803;28;20060;-73